This is the latest recevied weather packets stored in our database for station/object KY4EF. If no packets are shown the sender has not sent any weather packets the latest 1 day(s).
| Time | Temp. | Humidity | Pressure | Rain* | Wind** | Luminosity | Snow |
|---|---|---|---|---|---|---|---|
| 1778016586 | 23.33° C | 42% | 1012 hPa | 0 mm | 0.45 m/s, 128° | 88 W/m² | - |
| 1778016283 | 23.89° C | 42% | 1011.7 hPa | 0 mm | 0.45 m/s, 251° | 152 W/m² | - |
| 1778015979 | 25° C | 39% | 1011.6 hPa | 0 mm | 0.45 m/s, 95° | 244 W/m² | - |
| 1778015677 | 24.44° C | 41% | 1011.7 hPa | 0 mm | 0.45 m/s, 198° | 324 W/m² | - |
| 1778015373 | 23.89° C | 46% | 1011.6 hPa | 0 mm | 1.79 m/s, 78° | 427 W/m² | - |
| 1778015070 | 25.56° C | 37% | 1011.8 hPa | 0 mm | 0.89 m/s, 72° | 140 W/m² | - |
| 1778014767 | 26.67° C | 36% | 1011.7 hPa | 0 mm | 0.45 m/s, 303° | 177 W/m² | - |
| 1778014466 | 25° C | 38% | 1011.8 hPa | 0 mm | 0.45 m/s, 277° | 449 W/m² | - |
| 1778014162 | 25° C | 38% | 1011.5 hPa | 0 mm | 0.45 m/s, 248° | 460 W/m² | - |
| 1778013860 | 25.56° C | 41% | 1011.4 hPa | 0 mm | 1.34 m/s, 103° | 467 W/m² | - |
| 1778013557 | 25° C | 38% | 1011.6 hPa | 0 mm | 1.34 m/s, 157° | 494 W/m² | - |
| 1778013253 | 26.67° C | 35% | 1011.8 hPa | 0 mm | 0.89 m/s, 188° | 498 W/m² | - |
| 1778012950 | 26.11° C | 33% | 1011.8 hPa | 0 mm | 0.45 m/s, 201° | 540 W/m² | - |
| 1778012646 | 26.11° C | 35% | 1012 hPa | 0 mm | 0.45 m/s, 122° | 491 W/m² | - |
| 1778012342 | 25.56° C | 34% | 1011.7 hPa | 0 mm | 0 m/s | 521 W/m² | - |
| 1778012040 | 25° C | 36% | 1011.8 hPa | 0 mm | 0.89 m/s, 125° | 444 W/m² | - |
| 1778011738 | 25° C | 35% | 1012 hPa | 0 mm | 0.45 m/s, 30° | 433 W/m² | - |
| 1778011435 | 27.22° C | 32% | 1011.9 hPa | 0 mm | 0.45 m/s, 248° | 437 W/m² | - |
| 1778011130 | 27.22° C | 33% | 1012 hPa | 0 mm | 0 m/s | 465 W/m² | - |
| 1778010828 | 26.11° C | 33% | 1011.9 hPa | 0 mm | 0.45 m/s, 341° | 511 W/m² | - |
| 1778010525 | 26.11° C | 32% | 1012.2 hPa | 0 mm | 0.89 m/s, 322° | 517 W/m² | - |
| 1778010222 | 26.11° C | 32% | 1012 hPa | 0 mm | 0.89 m/s, 299° | 608 W/m² | - |
| 1778009917 | 26.11° C | 35% | 1012.3 hPa | 0 mm | 0.89 m/s, 142° | 663 W/m² | - |
| 1778009615 | 25.56° C | 33% | 1012.5 hPa | 0 mm | 0 m/s | 682 W/m² | - |
| 1778009313 | 25.56° C | 31% | 1012.6 hPa | 0 mm | 0.45 m/s, 255° | 265 W/m² | - |
* Rain latest hour (hover to see other rain measurements)
** Current wind speed in m/s (hover to see current wind gust speed)